This is the latest recevied weather packets stored in our database for station/object EA4IAJ-12. If no packets are shown the sender has not sent any weather packets the latest 10 day(s).
| Time | Temp. | Humidity | Pressure | Rain* | Wind** | Luminosity | Snow |
|---|---|---|---|---|---|---|---|
| 1777635017 | 31.11° C | 88% | 1068.6 hPa | - | - | - | - |
| 1777634117 | 30.56° C | 94% | 1068 hPa | - | - | - | - |
| 1777633217 | 31.67° C | 100% | 1074 hPa | - | - | - | - |
| 1777632316 | 30° C | 100% | 1066.5 hPa | - | - | - | - |
| 1777631415 | 30° C | 100% | 1068 hPa | - | - | - | - |
| 1777630515 | 26.67° C | 100% | 1053.9 hPa | - | - | - | - |
| 1777629614 | 27.78° C | 100% | 1058.5 hPa | - | - | - | - |
| 1777628726 | 27.22° C | 100% | 1056.6 hPa | - | - | - | - |
| 1777627826 | 30.56° C | 100% | 1073.8 hPa | - | - | - | - |
| 1777626925 | 26.67° C | 100% | 1055.7 hPa | - | - | - | - |
| 1777626025 | 25.56° C | 100% | 1052.9 hPa | - | - | - | - |
| 1777625124 | 23.89° C | 100% | 1047 hPa | - | - | - | - |
| 1777624223 | 24.44° C | 100% | 1047.5 hPa | - | - | - | - |
| 1777623323 | 22.22° C | 100% | 1039.1 hPa | - | - | - | - |
| 1777622423 | 20.56° C | 100% | 1032.4 hPa | - | - | - | - |
| 1777621522 | 21.11° C | 100% | 1033.9 hPa | - | - | - | - |
| 1777620621 | 19.44° C | 100% | 1029.3 hPa | - | - | - | - |
| 1777619721 | 19.44° C | 100% | 1028.5 hPa | - | - | - | - |
| 1777618820 | 18.33° C | 100% | 1024.1 hPa | - | - | - | - |
| 1777617919 | 17.22° C | 100% | 1018.9 hPa | - | - | - | - |
| 1777617019 | 15° C | 100% | 1009.4 hPa | - | - | - | - |
| 1777616118 | 12.22° C | 100% | 998.3 hPa | - | - | - | - |
| 1777615218 | 10° C | 100% | 990 hPa | - | - | - | - |
| 1777614317 | 10° C | 100% | 988.3 hPa | - | - | - | - |
| 1777613417 | 9.44° C | 100% | 985.9 hPa | - | - | - | - |
* Rain since midnight (hover to see other rain measurements)
** Current wind speed in m/s (hover to see current wind gust speed)